Time;durP1;ratioP1;P1;durP2;ratioP2;P2;SDS_P1;SDS_P2;PMS_P1;PMS_P2;Temp;Humidity;BMP_temperature;BMP_pressure;BME280_temperature;BME280_humidity;BME280_pressure;Samples;Min_cycle;Max_cycle;Signal;HPM_P1;HPM_P2
2022/01/06 00:00:39;;;;;;;3.03;1.43;;;4.10;99.90;;;4.87;100.00;-19892.66;5013430;28;20288;-63
2022/01/06 00:03:08;;;;;;;4.83;1.67;;;4.10;99.90;;;4.71;100.00;-19887.19;5013097;28;20324;-61
2022/01/06 00:05:36;;;;;;;8.73;1.60;;;4.00;99.90;;;4.77;100.00;-19889.22;5012417;28;20561;-62
2022/01/06 00:08:05;;;;;;;6.63;1.83;;;4.10;99.90;;;4.86;100.00;-19892.47;5012744;28;20323;-62
2022/01/06 00:10:33;;;;;;;4.50;1.43;;;4.10;99.90;;;4.79;100.00;-19890.09;5011847;28;20226;-63
2022/01/06 00:13:08;;;;;;;4.90;1.70;;;4.10;99.90;;;4.71;100.00;-19887.19;5013465;28;20686;-63
2022/01/06 00:15:54;;;;;;;4.50;1.50;;;4.00;99.90;;;4.83;100.00;-19891.44;5012746;28;20225;-63
2022/01/06 00:18:32;;;;;;;4.37;1.50;;;4.10;99.90;;;4.75;100.00;-19888.72;5012539;28;20252;-63
2022/01/06 00:23:46;;;;;;;5.63;1.60;;;4.10;99.90;;;4.77;100.00;-19889.41;5012600;28;20219;-62
2022/01/06 00:26:14;;;;;;;3.33;1.33;;;4.10;99.90;;;4.69;100.00;-19886.50;5012219;28;20253;-62
2022/01/06 00:28:42;;;;;;;5.20;1.60;;;4.00;99.90;;;4.84;100.00;-19891.78;5012504;28;20263;-63
2022/01/06 00:31:12;;;;;;;5.80;1.43;;;4.10;99.90;;;4.87;100.00;-19892.81;5011239;28;20193;-62
2022/01/06 00:33:40;;;;;;;6.33;1.47;;;4.10;99.90;;;4.64;100.00;-19884.78;5011794;28;20201;-62
2022/01/06 00:36:08;;;;;;;7.77;1.90;;;4.10;99.90;;;4.73;100.00;-19888.03;5011634;28;20222;-63
2022/01/06 00:38:36;;;;;;;7.87;1.27;;;4.00;99.90;;;4.71;100.00;-19887.19;5012232;28;20256;-63
2022/01/06 00:41:04;;;;;;;6.43;1.30;;;4.00;99.90;;;4.67;100.00;-19885.97;5012442;28;20256;-62
2022/01/06 00:43:32;;;;;;;4.57;1.40;;;4.00;99.90;;;4.61;100.00;-19883.94;5012513;28;20283;-63
2022/01/06 00:46:00;;;;;;;4.70;1.40;;;4.00;99.90;;;4.67;100.00;-19885.81;5012695;28;20250;-63
2022/01/06 00:48:29;;;;;;;3.87;1.37;;;3.90;99.90;;;4.60;100.00;-19883.41;5012077;28;20232;-63
2022/01/06 00:50:58;;;;;;;5.93;1.30;;;3.90;99.90;;;4.67;100.00;-19885.81;5012122;28;20283;-63
2022/01/06 00:53:32;;;;;;;3.30;1.30;;;3.80;99.90;;;4.56;100.00;-19882.22;5011877;28;20228;-63
2022/01/06 00:56:00;;;;;;;6.83;1.37;;;3.90;99.90;;;4.47;100.00;-19879.16;5011647;28;20308;-64
2022/01/06 00:58:28;;;;;;;3.60;1.30;;;3.80;99.90;;;4.37;100.00;-19875.72;5011977;28;20242;-63
2022/01/06 01:00:56;;;;;;;3.37;1.10;;;3.70;99.90;;;4.39;100.00;-19876.25;5012117;28;20218;-64
2022/01/06 01:03:25;;;;;;;6.53;1.40;;;3.70;99.90;;;4.46;100.00;-19878.81;5012042;28;20229;-64
2022/01/06 01:05:56;;;;;;;3.40;1.10;;;3.80;99.90;;;4.29;100.00;-19872.81;5011731;28;20640;-63
2022/01/06 01:08:26;;;;;;;2.80;1.13;;;3.70;99.90;;;4.35;100.00;-19875.03;5011766;28;20305;-63
2022/01/06 01:10:57;;;;;;;3.03;0.80;;;3.70;99.90;;;4.63;100.00;-19884.59;5011716;28;20232;-63
2022/01/06 01:13:30;;;;;;;5.13;1.43;;;3.70;99.90;;;4.40;100.00;-19876.56;5011643;28;20281;-64
2022/01/06 01:16:08;;;;;;;2.23;0.77;;;3.70;99.90;;;4.34;100.00;-19874.53;5012155;28;20200;-63
2022/01/06 01:18:39;;;;;;;4.27;0.80;;;3.70;99.90;;;4.36;100.00;-19875.22;5012215;28;20522;-63
2022/01/06 01:21:08;;;;;;;2.57;1.00;;;3.70;99.90;;;4.28;100.00;-19872.47;5011273;28;20254;-63
2022/01/06 01:23:36;;;;;;;1.73;0.60;;;3.60;99.90;;;4.39;100.00;-19876.41;5011978;28;20316;-63
2022/01/06 01:26:04;;;;;;;2.93;1.07;;;3.70;99.90;;;4.35;100.00;-19874.88;5012168;28;20237;-63
2022/01/06 01:28:42;;;;;;;3.37;0.90;;;3.60;99.90;;;4.28;100.00;-19872.47;5011756;28;20226;-63
2022/01/06 01:31:23;;;;;;;2.50;1.10;;;3.60;99.90;;;4.19;100.00;-19869.56;5011345;28;20189;-63
2022/01/06 01:33:56;;;;;;;1.90;0.90;;;3.60;99.90;;;4.18;100.00;-19869.22;5012320;28;20186;-62
2022/01/06 01:36:26;;;;;;;2.40;0.80;;;3.50;99.90;;;4.16;100.00;-19868.53;5011383;28;20245;-63
2022/01/06 01:38:54;;;;;;;2.23;0.97;;;3.50;99.90;;;4.20;100.00;-19869.75;5011139;28;20320;-61
2022/01/06 01:41:22;;;;;;;2.77;1.10;;;3.50;99.90;;;4.11;100.00;-19866.66;5010780;28;20639;-62
2022/01/06 01:43:53;;;;;;;2.60;1.00;;;3.50;99.90;;;4.25;100.00;-19871.63;5001553;28;20814;-62
2022/01/06 01:46:28;;;;;;;4.13;1.70;;;3.50;99.90;;;4.15;100.00;-19868.22;4991268;28;20702;-61
2022/01/06 01:49:14;;;;;;;2.60;1.43;;;3.50;99.90;;;4.18;100.00;-19869.06;4992161;28;20642;-62
2022/01/06 01:51:45;;;;;;;2.47;1.47;;;3.50;99.90;;;4.24;100.00;-19871.13;4992052;28;20276;-62
2022/01/06 01:54:14;;;;;;;3.87;1.93;;;3.50;99.90;;;4.42;100.00;-19877.44;4991345;28;20273;-62
2022/01/06 01:56:42;;;;;;;4.57;1.40;;;3.60;99.90;;;4.54;100.00;-19881.53;5010455;28;20239;-62
2022/01/06 01:59:11;;;;;;;4.10;1.40;;;3.60;99.90;;;4.28;100.00;-19872.66;5011320;28;20643;-62
2022/01/06 02:01:41;;;;;;;3.20;1.57;;;3.60;99.90;;;4.34;100.00;-19874.69;5010965;28;20718;-61
2022/01/06 02:04:10;;;;;;;4.53;1.60;;;3.60;99.90;;;4.36;100.00;-19875.22;5011288;28;20201;-62
2022/01/06 02:06:38;;;;;;;6.47;1.60;;;3.60;99.90;;;4.60;100.00;-19883.59;5011721;28;20226;-63
2022/01/06 02:09:08;;;;;;;3.33;1.50;;;3.70;99.90;;;4.28;100.00;-19872.47;5010871;28;20234;-63
2022/01/06 02:11:36;;;;;;;6.77;1.60;;;3.70;99.90;;;4.43;100.00;-19877.59;5010790;28;20309;-62
2022/01/06 02:14:06;;;;;;;5.93;1.80;;;3.70;99.90;;;4.37;100.00;-19875.72;5011347;28;20760;-63
2022/01/06 02:16:34;;;;;;;5.43;1.30;;;3.70;99.90;;;4.50;100.00;-19880.00;5010855;28;20230;-63
2022/01/06 02:19:02;;;;;;;7.23;1.90;;;3.70;99.90;;;4.42;100.00;-19877.25;5011240;28;20555;-63
2022/01/06 02:21:31;;;;;;;5.53;1.40;;;3.70;99.90;;;4.36;100.00;-19875.38;5010916;28;20310;-62
2022/01/06 02:23:59;;;;;;;6.73;1.67;;;3.70;99.90;;;4.41;100.00;-19877.09;5010784;28;20649;-62
2022/01/06 02:26:27;;;;;;;7.23;2.23;;;3.60;99.90;;;4.52;100.00;-19880.69;5011393;28;20237;-63
2022/01/06 02:28:55;;;;;;;7.77;2.30;;;3.70;99.90;;;4.47;100.00;-19879.16;5011634;28;20706;-62
2022/01/06 02:31:24;;;;;;;6.97;1.90;;;3.70;99.90;;;4.55;100.00;-19881.88;5010774;28;20737;-62
2022/01/06 02:33:52;;;;;;;6.60;2.00;;;3.70;99.90;;;4.52;100.00;-19880.84;5014903;28;20221;-63
2022/01/06 02:36:20;;;;;;;7.93;2.03;;;3.70;99.90;;;4.48;100.00;-19879.47;5014504;28;20315;-62
2022/01/06 02:38:49;;;;;;;6.50;1.80;;;3.60;99.90;;;4.35;100.00;-19875.03;5014435;28;20228;-63
2022/01/06 02:41:17;;;;;;;7.37;2.50;;;3.70;99.90;;;4.19;100.00;-19869.41;5014649;28;20464;-62
2022/01/06 02:43:45;;;;;;;6.97;1.83;;;3.60;99.90;;;4.39;100.00;-19876.41;5014527;28;20305;-63
2022/01/06 02:46:13;;;;;;;6.30;1.80;;;3.60;99.90;;;4.32;100.00;-19873.84;5014212;28;20210;-62
2022/01/06 02:48:41;;;;;;;5.07;1.93;;;3.60;99.90;;;4.36;100.00;-19875.38;5014270;28;20226;-57
2022/01/06 02:51:09;;;;;;;8.97;1.90;;;3.60;99.90;;;4.32;100.00;-19873.84;5013628;28;20309;-57
2022/01/06 02:53:37;;;;;;;10.17;2.40;;;3.60;99.90;;;4.34;100.00;-19874.69;5013598;28;20695;-58
2022/01/06 02:56:07;;;;;;;6.07;2.13;;;3.60;99.90;;;4.38;100.00;-19875.91;5014002;28;20322;-59
2022/01/06 02:58:42;;;;;;;6.53;2.07;;;3.60;99.90;;;4.40;100.00;-19876.75;5014459;28;20231;-59
2022/01/06 03:01:10;;;;;;;6.10;2.20;;;3.60;99.90;;;4.26;100.00;-19871.78;5014384;28;20246;-60
2022/01/06 03:03:38;;;;;;;14.53;2.40;;;3.60;99.90;;;4.45;100.00;-19878.47;5014678;28;20214;-59
2022/01/06 03:06:06;;;;;;;9.67;2.23;;;3.60;99.90;;;4.49;100.00;-19879.81;5014000;28;20228;-57
2022/01/06 03:08:37;;;;;;;9.67;1.87;;;3.60;99.90;;;4.49;100.00;-19879.66;5013614;28;20661;-59
2022/01/06 03:11:07;;;;;;;4.13;1.63;;;3.60;99.90;;;4.39;100.00;-19876.41;5013918;28;20311;-58
2022/01/06 03:13:35;;;;;;;6.87;1.70;;;3.60;99.90;;;4.20;100.00;-19869.91;5013635;28;20723;-58
2022/01/06 03:16:04;;;;;;;5.77;1.70;;;3.50;99.90;;;4.07;100.00;-19865.31;5014592;28;20236;-57
2022/01/06 03:18:32;;;;;;;5.17;1.77;;;3.40;99.90;;;3.96;100.00;-19861.72;5013565;28;20245;-57
2022/01/06 03:21:00;;;;;;;6.47;1.90;;;3.30;99.90;;;3.91;100.00;-19859.84;5013606;28;20232;-57
2022/01/06 03:23:28;;;;;;;8.40;2.33;;;3.30;99.90;;;3.97;100.00;-19862.06;5013368;28;20259;-57
2022/01/06 03:25:56;;;;;;;5.87;2.23;;;3.20;99.90;;;3.99;100.00;-19862.72;5012858;28;20250;-58
2022/01/06 03:28:25;;;;;;;4.60;2.10;;;3.20;99.90;;;4.12;100.00;-19867.00;5013578;28;20659;-58
2022/01/06 03:30:53;;;;;;;4.87;2.50;;;3.20;99.90;;;3.87;100.00;-19858.63;5014735;28;20227;-57
2022/01/06 03:33:22;;;;;;;3.73;1.87;;;3.20;99.90;;;3.68;100.00;-19852.31;5013445;28;20332;-57
2022/01/06 03:35:50;;;;;;;4.17;2.13;;;3.10;99.90;;;3.59;100.00;-19849.22;5013550;28;20265;-57
2022/01/06 03:38:18;;;;;;;2.87;1.40;;;2.90;99.90;;;3.39;100.00;-19842.41;5013047;28;20239;-56
2022/01/06 03:40:46;;;;;;;5.00;1.60;;;2.80;99.90;;;3.30;100.00;-19839.16;5013696;28;20257;-58
2022/01/06 03:43:14;;;;;;;2.10;1.60;;;2.70;99.90;;;3.24;100.00;-19837.09;5007732;28;20206;-58
2022/01/06 03:45:44;;;;;;;2.10;1.30;;;2.60;99.90;;;3.16;100.00;-19834.53;4994155;28;20258;-57
2022/01/06 03:48:12;;;;;;;2.00;1.47;;;2.50;99.90;;;3.34;100.00;-19840.50;4993481;28;20231;-57
2022/01/06 03:50:41;;;;;;;2.77;1.40;;;2.60;99.90;;;3.27;100.00;-19838.13;4993672;28;20717;-57
2022/01/06 03:53:09;;;;;;;2.93;1.50;;;2.50;99.90;;;3.11;100.00;-19832.66;4993241;28;20326;-56
2022/01/06 03:55:39;;;;;;;4.30;1.53;;;2.50;99.90;;;3.05;100.00;-19830.78;5003556;28;20278;-58
2022/01/06 03:58:10;;;;;;;4.57;1.83;;;2.40;99.90;;;3.14;100.00;-19833.69;5013728;28;20242;-59
2022/01/06 04:00:39;;;;;;;3.47;2.00;;;2.50;99.90;;;3.22;100.00;-19836.59;5012854;28;20297;-57
2022/01/06 04:03:09;;;;;;;2.13;1.60;;;2.50;99.90;;;3.14;100.00;-19833.69;5012712;28;20226;-57
2022/01/06 04:05:37;;;;;;;4.60;1.90;;;2.50;99.90;;;3.22;100.00;-19836.41;5013264;28;20808;-57
2022/01/06 04:08:06;;;;;;;3.73;1.73;;;2.40;99.90;;;3.06;100.00;-19830.94;5012843;28;20331;-58
2022/01/06 04:10:34;;;;;;;2.87;1.40;;;2.40;99.90;;;3.09;100.00;-19831.97;5012839;28;20266;-58
2022/01/06 04:13:02;;;;;;;3.17;1.60;;;2.40;99.90;;;3.00;100.00;-19829.06;5013338;28;20657;-59
2022/01/06 04:15:30;;;;;;;5.53;1.80;;;2.30;99.90;;;2.81;100.00;-19822.41;5012697;28;20361;-59
2022/01/06 04:17:58;;;;;;;2.47;1.33;;;2.30;99.90;;;2.68;100.00;-19817.94;5012797;28;20796;-58
2022/01/06 04:20:28;;;;;;;2.93;1.40;;;2.20;99.90;;;2.83;100.00;-19823.06;5012685;28;20337;-56
2022/01/06 04:22:56;;;;;;;3.07;1.40;;;2.20;99.90;;;2.78;100.00;-19821.53;5012431;28;20797;-57
2022/01/06 04:25:24;;;;;;;7.43;1.83;;;2.20;99.90;;;2.71;100.00;-19818.97;5012584;28;20312;-56
2022/01/06 04:27:52;;;;;;;3.23;1.50;;;2.10;99.90;;;2.54;100.00;-19813.16;5013256;28;20237;-58
2022/01/06 04:30:20;;;;;;;2.17;1.40;;;2.00;99.90;;;2.50;100.00;-19812.13;5012239;28;20292;-58
2022/01/06 04:32:48;;;;;;;3.33;2.00;;;1.90;99.90;;;2.30;100.00;-19805.13;5012302;28;20273;-58
2022/01/06 04:35:16;;;;;;;3.27;1.60;;;1.80;99.90;;;2.46;100.00;-19810.59;5012310;28;20314;-55
2022/01/06 04:37:45;;;;;;;4.50;1.50;;;1.80;99.90;;;2.34;100.00;-19806.50;5012028;28;20259;-57
2022/01/06 04:40:13;;;;;;;2.30;1.50;;;1.80;99.90;;;2.24;100.00;-19803.06;5011799;28;20297;-56
2022/01/06 04:42:42;;;;;;;2.47;1.80;;;1.70;99.90;;;2.16;100.00;-19800.34;5011906;28;20672;-56
2022/01/06 04:45:10;;;;;;;3.73;1.23;;;1.60;99.90;;;2.23;100.00;-19802.72;4992656;28;20267;-58
2022/01/06 04:47:38;;;;;;;4.77;1.60;;;1.60;99.90;;;2.17;100.00;-19800.84;4992619;28;20239;-58
2022/01/06 04:50:07;;;;;;;6.00;1.60;;;1.60;99.90;;;2.18;100.00;-19801.03;4992422;28;20232;-57
2022/01/06 04:52:36;;;;;;;2.40;1.53;;;1.60;99.90;;;2.13;100.00;-19799.47;4992314;28;20231;-57
2022/01/06 04:55:07;;;;;;;4.77;1.30;;;1.50;99.90;;;2.15;100.00;-19800.16;4997512;28;20309;-58
2022/01/06 04:57:35;;;;;;;2.10;1.30;;;1.50;99.90;;;1.95;100.00;-19793.16;5012116;28;20269;-58
2022/01/06 05:00:07;;;;;;;2.67;1.40;;;1.50;99.90;;;1.97;100.00;-19793.84;5011259;28;20253;-58
2022/01/06 05:02:35;;;;;;;3.50;1.37;;;1.40;99.90;;;1.93;100.00;-19792.66;5011609;28;20308;-59
2022/01/06 05:05:04;;;;;;;3.03;1.27;;;1.40;99.90;;;1.92;100.00;-19792.31;5011742;28;20231;-59
2022/01/06 05:07:33;;;;;;;3.33;1.77;;;1.30;99.90;;;1.65;100.00;-19783.06;5011666;28;20313;-57
2022/01/06 05:10:01;;;;;;;2.17;1.40;;;1.20;99.90;;;1.61;100.00;-19781.53;5011933;28;20333;-59
2022/01/06 05:12:30;;;;;;;4.80;1.53;;;1.10;99.90;;;1.73;100.00;-19785.81;5011624;28;20280;-57
2022/01/06 05:14:58;;;;;;;1.90;1.53;;;1.10;99.90;;;1.83;100.00;-19789.22;5011493;28;20229;-58
2022/01/06 05:17:27;;;;;;;3.07;1.50;;;1.10;99.90;;;1.91;100.00;-19791.97;5011493;28;20230;-55
2022/01/06 05:19:54;;;;;;;1.97;1.30;;;1.10;99.90;;;1.84;100.00;-19789.41;5011635;28;20313;-59
2022/01/06 05:22:23;;;;;;;1.67;1.13;;;1.20;99.90;;;1.91;100.00;-19791.97;5011190;28;20241;-57
2022/01/06 05:24:53;;;;;;;4.97;1.90;;;1.20;99.90;;;1.56;100.00;-19780.00;5012029;28;20675;-59
2022/01/06 05:27:21;;;;;;;3.30;1.60;;;1.10;99.90;;;1.56;100.00;-19780.00;5011162;28;20233;-57
2022/01/06 05:29:51;;;;;;;4.17;1.60;;;1.00;99.90;;;1.57;100.00;-19780.34;5011589;28;20227;-59
2022/01/06 05:32:20;;;;;;;3.27;1.43;;;1.10;99.90;;;1.38;100.00;-19773.84;5011324;28;20802;-59
2022/01/06 05:34:48;;;;;;;2.40;1.30;;;1.00;99.90;;;1.27;100.00;-19770.25;5011531;28;20337;-57
2022/01/06 05:37:16;;;;;;;3.33;1.40;;;0.90;99.90;;;1.45;100.00;-19776.06;5011407;28;20203;-56
2022/01/06 05:39:44;;;;;;;3.00;1.40;;;0.90;99.90;;;1.25;100.00;-19769.41;5012118;28;20237;-62
2022/01/06 05:42:13;;;;;;;1.93;1.30;;;0.80;99.90;;;1.27;100.00;-19770.25;5011351;28;20240;-61
2022/01/06 05:44:42;;;;;;;4.57;1.37;;;0.80;99.90;;;1.20;100.00;-19767.69;5011519;28;20236;-62
2022/01/06 05:47:12;;;;;;;3.57;1.43;;;0.70;99.90;;;1.01;100.00;-19761.38;5011790;28;20636;-62
2022/01/06 05:49:40;;;;;;;3.07;1.80;;;0.60;99.90;;;0.94;100.00;-19758.97;5011754;28;20236;-63
2022/01/06 05:52:08;;;;;;;2.23;1.60;;;0.50;99.90;;;1.08;100.00;-19763.75;5011706;28;20651;-63
2022/01/06 05:54:36;;;;;;;3.93;1.63;;;0.60;99.90;;;1.00;100.00;-19761.03;5011415;28;20330;-62
2022/01/06 05:57:09;;;;;;;5.87;1.93;;;0.50;99.90;;;1.29;100.00;-19770.75;5011298;28;20234;-62
2022/01/06 05:59:37;;;;;;;4.23;1.70;;;0.60;99.90;;;1.21;100.00;-19768.03;5011568;28;20250;-62
2022/01/06 06:02:06;;;;;;;3.43;1.70;;;0.60;99.90;;;1.13;100.00;-19765.47;5010887;28;20254;-64
2022/01/06 06:04:35;;;;;;;2.97;1.80;;;0.60;99.90;;;1.25;100.00;-19769.56;5011546;28;20226;-62
2022/01/06 06:07:04;;;;;;;3.63;1.70;;;0.60;99.90;;;1.20;100.00;-19767.69;5014150;28;20249;-63
2022/01/06 06:09:32;;;;;;;4.13;2.13;;;0.50;99.90;;;1.17;100.00;-19766.66;5015167;28;20266;-63
2022/01/06 06:12:00;;;;;;;3.40;1.90;;;0.50;99.90;;;1.12;100.00;-19764.94;5015217;28;20241;-62
2022/01/06 06:14:28;;;;;;;2.20;1.70;;;0.50;99.90;;;0.90;100.00;-19757.44;5015107;28;20342;-62
2022/01/06 06:16:56;;;;;;;5.43;1.90;;;0.40;99.90;;;0.97;100.00;-19759.81;5015327;28;20310;-63
2022/01/06 06:19:24;;;;;;;2.20;1.50;;;0.40;99.90;;;0.96;100.00;-19759.66;5015542;28;20650;-62
2022/01/06 06:21:54;;;;;;;6.13;1.87;;;0.40;99.90;;;0.94;100.00;-19758.78;5015800;28;20202;-62
2022/01/06 06:24:23;;;;;;;3.70;1.50;;;0.40;99.90;;;0.83;100.00;-19755.03;5015159;28;20281;-62
2022/01/06 06:26:52;;;;;;;4.13;1.73;;;0.30;99.90;;;1.08;100.00;-19763.59;5014798;28;20241;-63
2022/01/06 06:29:21;;;;;;;3.10;2.03;;;0.40;99.90;;;0.94;100.00;-19758.78;5014717;28;20886;-63
2022/01/06 06:31:49;;;;;;;3.00;1.73;;;0.40;99.90;;;0.88;100.00;-19756.91;5014705;28;20245;-62
2022/01/06 06:34:17;;;;;;;4.27;2.50;;;0.30;99.90;;;0.94;100.00;-19758.97;5014317;28;20205;-62
2022/01/06 06:36:45;;;;;;;3.10;2.10;;;0.30;99.90;;;0.96;100.00;-19759.47;5014591;28;20286;-64
2022/01/06 06:39:15;;;;;;;4.37;2.23;;;0.30;99.90;;;0.98;100.00;-19760.16;5013909;28;20313;-63
2022/01/06 06:41:43;;;;;;;5.03;2.30;;;0.40;99.90;;;0.85;100.00;-19755.72;5014441;28;20261;-63
2022/01/06 06:44:11;;;;;;;3.33;2.00;;;0.30;99.90;;;0.75;100.00;-19752.28;5014858;28;20316;-63
2022/01/06 06:46:39;;;;;;;2.40;2.00;;;0.30;99.90;;;0.88;100.00;-19756.75;5014522;28;20254;-64
2022/01/06 06:49:07;;;;;;;5.77;2.10;;;0.30;99.90;;;0.83;100.00;-19755.03;5015264;28;20572;-63
2022/01/06 06:51:35;;;;;;;8.40;2.27;;;0.30;99.90;;;0.80;100.00;-19754.00;5014486;28;20634;-63
2022/01/06 06:54:09;;;;;;;3.40;2.00;;;0.20;99.90;;;0.86;100.00;-19756.22;5014270;28;20642;-63
2022/01/06 06:56:38;;;;;;;2.50;1.90;;;0.30;99.90;;;0.83;100.00;-19755.03;5014233;28;20357;-63
2022/01/06 06:59:06;;;;;;;4.10;1.90;;;0.30;99.90;;;0.81;100.00;-19754.34;5014302;28;20258;-63
2022/01/06 07:01:34;;;;;;;4.57;2.40;;;0.30;99.90;;;0.61;100.00;-19747.50;5014147;28;20273;-64
2022/01/06 07:04:03;;;;;;;2.43;1.80;;;0.20;99.90;;;0.71;100.00;-19751.09;5015057;28;20293;-63
2022/01/06 07:06:31;;;;;;;4.03;1.90;;;0.20;99.90;;;0.73;100.00;-19751.78;5014140;28;20227;-64
2022/01/06 07:08:59;;;;;;;3.63;1.77;;;0.20;99.90;;;0.70;100.00;-19750.59;5014240;28;20640;-63
2022/01/06 07:11:27;;;;;;;4.40;2.07;;;0.20;99.90;;;0.76;100.00;-19752.81;5014152;28;20305;-61
2022/01/06 07:13:56;;;;;;;3.77;1.93;;;0.20;99.90;;;0.72;100.00;-19751.44;5014401;28;20408;-63
2022/01/06 07:16:24;;;;;;;3.43;1.70;;;0.20;99.90;;;0.56;100.00;-19745.97;5014059;28;20322;-62
2022/01/06 07:18:52;;;;;;;3.47;1.40;;;0.10;99.90;;;0.57;100.00;-19746.16;5014381;28;20213;-62
2022/01/06 07:21:20;;;;;;;4.93;2.00;;;0.10;99.90;;;0.88;100.00;-19756.75;5014234;28;20227;-63
2022/01/06 07:23:49;;;;;;;2.90;1.70;;;0.20;99.90;;;0.90;100.00;-19757.59;5014235;28;20231;-63
2022/01/06 07:26:17;;;;;;;5.23;2.20;;;0.20;99.90;;;0.78;100.00;-19753.31;5014045;28;20250;-62
2022/01/06 07:28:45;;;;;;;5.37;2.37;;;0.20;99.90;;;0.75;100.00;-19752.28;5014186;28;20329;-63
2022/01/06 07:31:15;;;;;;;4.70;2.20;;;0.20;99.90;;;0.78;100.00;-19753.31;5014276;28;20222;-63
2022/01/06 07:33:43;;;;;;;4.70;2.67;;;0.20;99.90;;;0.78;100.00;-19753.31;5014593;28;20208;-63
2022/01/06 07:36:11;;;;;;;5.13;2.20;;;0.20;99.90;;;0.93;100.00;-19758.47;5013926;28;20317;-63
2022/01/06 07:38:40;;;;;;;3.80;2.40;;;0.20;99.90;;;0.83;100.00;-19755.19;5013234;28;20314;-64
2022/01/06 07:41:08;;;;;;;6.37;2.50;;;0.30;99.90;;;1.09;100.00;-19763.94;5013047;28;20702;-63
2022/01/06 07:43:36;;;;;;;2.20;1.83;;;0.30;99.90;;;1.14;100.00;-19765.81;5005465;28;20243;-62
2022/01/06 07:46:04;;;;;;;3.93;2.20;;;0.40;99.90;;;1.37;100.00;-19773.50;4994355;28;20258;-63
2022/01/06 07:48:48;;;;;;;2.37;1.67;;;0.60;99.90;;;1.57;100.00;-19780.34;5006348;28;20261;-62
2022/01/06 07:51:16;;;;;;;3.23;1.83;;;0.70;99.90;;;1.64;100.00;-19782.56;5013200;28;20313;-64
2022/01/06 07:53:44;;;;;;;2.10;1.50;;;0.80;99.90;;;1.92;100.00;-19792.31;5013179;28;20237;-63
2022/01/06 07:56:12;;;;;;;2.70;1.53;;;1.00;99.90;;;1.94;100.00;-19793.00;5013535;28;20313;-61
2022/01/06 07:58:40;;;;;;;2.80;1.50;;;1.10;99.90;;;1.92;100.00;-19792.31;5013619;28;20249;-63
2022/01/06 08:01:10;;;;;;;3.23;1.73;;;1.10;99.90;;;2.13;100.00;-19799.31;5013702;28;20286;-60
2022/01/06 08:03:40;;;;;;;3.93;1.60;;;1.20;99.90;;;2.16;100.00;-19800.34;5014112;28;20256;-63
2022/01/06 08:06:10;;;;;;;3.63;1.43;;;1.30;99.90;;;2.25;100.00;-19803.41;5013920;28;20262;-62
2022/01/06 08:08:38;;;;;;;4.37;1.40;;;1.40;99.90;;;2.24;100.00;-19803.25;5013193;28;20224;-61
2022/01/06 08:11:06;;;;;;;3.67;1.30;;;1.40;99.90;;;2.24;100.00;-19803.06;5013544;28;20582;-62
2022/01/06 08:13:34;;;;;;;3.70;1.50;;;1.40;99.90;;;2.27;100.00;-19804.28;5012940;28;20223;-61
2022/01/06 08:16:02;;;;;;;4.93;1.50;;;1.40;99.90;;;2.29;100.00;-19804.97;5013926;28;20338;-62
2022/01/06 08:18:31;;;;;;;3.53;1.60;;;1.50;99.90;;;2.34;100.00;-19806.66;5013218;28;20889;-62
2022/01/06 08:21:01;;;;;;;5.00;1.80;;;1.50;99.90;;;2.35;100.00;-19806.84;5013241;28;20310;-63
2022/01/06 08:23:29;;;;;;;3.63;1.40;;;1.60;99.90;;;2.42;100.00;-19809.41;5012563;28;20241;-63
2022/01/06 08:25:57;;;;;;;2.97;1.53;;;1.60;99.90;;;2.46;100.00;-19810.59;5012328;28;20249;-62
2022/01/06 08:28:26;;;;;;;3.80;1.47;;;1.60;99.90;;;2.37;100.00;-19807.53;5012749;28;20210;-62
2022/01/06 08:30:54;;;;;;;3.80;1.43;;;1.60;99.90;;;2.50;100.00;-19812.13;5009913;28;20240;-61
2022/01/06 08:33:22;;;;;;;2.40;1.30;;;1.60;99.90;;;2.68;100.00;-19818.13;5011896;28;20734;-62
2022/01/06 08:35:50;;;;;;;6.83;2.00;;;1.70;99.90;;;2.72;100.00;-19819.31;5012062;28;20262;-62
2022/01/06 08:38:19;;;;;;;4.23;1.63;;;1.80;99.90;;;2.74;100.00;-19820.16;5012298;28;20218;-64
2022/01/06 08:40:47;;;;;;;3.03;1.60;;;1.80;99.90;;;2.77;100.00;-19821.19;5012248;28;20311;-63
2022/01/06 08:43:16;;;;;;;1.60;1.30;;;1.80;99.90;;;2.84;100.00;-19823.41;5012232;28;20683;-63
2022/01/06 08:45:44;;;;;;;4.17;1.63;;;2.00;99.90;;;2.97;100.00;-19827.88;5012901;28;20203;-63
2022/01/06 08:48:12;;;;;;;3.23;1.67;;;2.00;99.90;;;2.92;100.00;-19826.31;5011967;28;20738;-64
2022/01/06 08:50:40;;;;;;;3.60;2.10;;;2.00;99.90;;;3.06;100.00;-19831.09;5012262;28;20329;-63
2022/01/06 08:53:08;;;;;;;4.57;1.80;;;2.10;99.90;;;3.01;100.00;-19829.41;5012584;28;20230;-63
2022/01/06 08:55:38;;;;;;;2.43;1.67;;;2.20;99.90;;;3.09;100.00;-19832.13;5001459;28;20351;-62
2022/01/06 08:58:06;;;;;;;4.93;1.43;;;2.20;99.90;;;3.04;100.00;-19830.25;4993463;28;20633;-63
2022/01/06 09:00:35;;;;;;;2.17;1.33;;;2.20;99.90;;;3.08;100.00;-19831.78;4992605;28;20310;-63
2022/01/06 09:03:05;;;;;;;1.70;1.60;;;2.30;99.90;;;2.95;100.00;-19827.19;5000955;28;20230;-63
2022/01/06 09:05:33;;;;;;;7.83;1.80;;;2.20;99.90;;;2.92;100.00;-19826.16;5012371;28;20239;-64
2022/01/06 09:08:01;;;;;;;3.37;1.60;;;2.20;99.90;;;2.92;100.00;-19826.31;5012149;28;20641;-63
2022/01/06 09:10:33;;;;;;;2.37;1.40;;;2.20;99.90;;;2.75;100.00;-19820.50;5012355;28;20312;-63
2022/01/06 09:13:22;;;;;;;3.43;1.40;;;2.10;99.90;;;2.75;100.00;-19820.34;5012540;28;20197;-63
2022/01/06 09:15:50;;;;;;;2.80;1.40;;;2.10;99.90;;;2.79;100.00;-19821.72;5012598;28;20671;-64
2022/01/06 09:18:18;;;;;;;2.07;1.50;;;2.10;99.90;;;2.86;100.00;-19824.09;5012071;28;20345;-63
2022/01/06 09:20:46;;;;;;;2.10;1.50;;;2.10;99.90;;;2.87;100.00;-19824.63;5012163;28;20230;-64
2022/01/06 09:23:15;;;;;;;3.90;1.60;;;2.20;99.90;;;2.83;100.00;-19823.06;5012027;28;20313;-63
2022/01/06 09:25:43;;;;;;;3.73;1.80;;;2.20;99.90;;;2.98;100.00;-19828.19;5011485;28;20706;-64
2022/01/06 09:28:11;;;;;;;4.87;1.63;;;2.30;99.90;;;3.13;100.00;-19833.34;5011869;28;20725;-63
2022/01/06 09:30:40;;;;;;;3.60;1.57;;;2.30;99.90;;;3.50;100.00;-19846.00;5011884;28;20244;-64
2022/01/06 09:33:09;;;;;;;2.13;1.30;;;2.50;99.90;;;3.53;100.00;-19847.19;5011988;28;20254;-62
2022/01/06 09:35:37;;;;;;;4.47;1.50;;;2.60;99.90;;;3.65;100.00;-19851.13;5011694;28;20254;-63
2022/01/06 09:38:05;;;;;;;4.20;1.53;;;2.70;99.90;;;3.75;100.00;-19854.53;5012043;28;20235;-62
2022/01/06 09:40:41;;;;;;;3.07;1.40;;;2.80;99.90;;;3.77;100.00;-19855.22;5011521;28;20301;-62
2022/01/06 09:43:12;;;;;;;3.67;1.37;;;2.90;99.90;;;3.99;100.00;-19862.72;5012090;28;20222;-59
2022/01/06 09:45:43;;;;;;;2.20;1.63;;;3.00;99.90;;;3.89;100.00;-19859.31;5012013;28;20286;-59
2022/01/06 09:48:12;;;;;;;3.97;1.57;;;3.10;99.90;;;3.82;100.00;-19856.94;5011816;28;20237;-59
2022/01/06 09:50:42;;;;;;;3.13;1.27;;;3.00;99.90;;;3.91;100.00;-19859.84;5011317;28;20255;-60
2022/01/06 09:53:11;;;;;;;3.03;1.50;;;3.10;99.90;;;3.86;100.00;-19858.13;5011731;28;20242;-59
2022/01/06 09:55:42;;;;;;;1.57;1.17;;;3.10;99.90;;;3.93;100.00;-19860.69;5000276;28;20606;-60
2022/01/06 09:58:10;;;;;;;3.20;1.50;;;3.10;99.90;;;3.91;100.00;-19860.00;4992215;28;20276;-63
2022/01/06 10:00:38;;;;;;;1.67;1.37;;;3.10;99.90;;;4.21;100.00;-19870.25;5011054;28;20223;-64
2022/01/06 10:03:08;;;;;;;4.43;1.60;;;3.10;99.90;;;4.48;100.00;-19879.31;5011861;28;20228;-63
2022/01/06 10:05:42;;;;;;;4.80;1.60;;;3.30;99.90;;;4.26;100.00;-19871.78;5011656;28;20933;-63
2022/01/06 10:08:12;;;;;;;2.90;1.27;;;3.40;99.90;;;4.20;100.00;-19869.91;5011640;28;20603;-63
2022/01/06 10:10:41;;;;;;;2.60;1.67;;;3.40;99.90;;;4.08;100.00;-19865.81;5011207;28;20309;-63
2022/01/06 10:13:16;;;;;;;2.77;1.57;;;3.30;99.90;;;4.04;100.00;-19864.44;5012084;28;20201;-63
2022/01/06 10:15:46;;;;;;;4.83;2.03;;;3.30;99.90;;;4.00;100.00;-19863.06;5011311;28;20222;-63
2022/01/06 10:18:17;;;;;;;3.13;1.50;;;3.30;99.90;;;3.96;100.00;-19861.72;5011306;28;20610;-63
2022/01/06 10:20:48;;;;;;;1.90;1.67;;;3.30;99.90;;;4.20;100.00;-19869.75;5011042;28;20720;-62
2022/01/06 10:23:17;;;;;;;3.67;1.20;;;3.30;99.90;;;4.13;100.00;-19867.34;5011398;28;20237;-64
2022/01/06 10:25:49;;;;;;;1.93;1.60;;;3.40;99.90;;;4.14;100.00;-19867.88;5013092;28;20305;-63
2022/01/06 10:28:24;;;;;;;4.93;1.70;;;3.40;99.90;;;4.18;100.00;-19869.22;5011665;28;20185;-63
2022/01/06 10:30:52;;;;;;;1.50;1.20;;;3.30;99.90;;;4.23;100.00;-19870.94;5011424;28;20236;-63